sensor_id;sensor_type;location;lat;lon;timestamp;pressure;altitude;pressure_sealevel;temperature;humidity
11045;BME280;9786;42.714;23.272;2022-07-05T00:02:29;95049.00;;;22.53;47.30
11045;BME280;9786;42.714;23.272;2022-07-05T00:05:16;95049.44;;;22.50;47.35
11045;BME280;9786;42.714;23.272;2022-07-05T00:08:02;95052.22;;;22.25;50.33
11045;BME280;9786;42.714;23.272;2022-07-05T00:10:50;95055.94;;;21.99;52.28
11045;BME280;9786;42.714;23.272;2022-07-05T00:13:37;95046.31;;;21.80;52.89
11045;BME280;9786;42.714;23.272;2022-07-05T00:16:24;95049.28;;;21.72;54.44
11045;BME280;9786;42.714;23.272;2022-07-05T00:20:25;95060.16;;;21.64;54.63
11045;BME280;9786;42.714;23.272;2022-07-05T00:23:12;95051.22;;;21.58;56.83
11045;BME280;9786;42.714;23.272;2022-07-05T00:25:59;95054.03;;;21.63;54.01
11045;BME280;9786;42.714;23.272;2022-07-05T00:28:45;95042.34;;;21.71;57.16
11045;BME280;9786;42.714;23.272;2022-07-05T00:31:32;95049.28;;;21.47;59.90
11045;BME280;9786;42.714;23.272;2022-07-05T00:34:19;95048.47;;;21.15;62.26
11045;BME280;9786;42.714;23.272;2022-07-05T00:37:05;95049.69;;;20.87;66.15
11045;BME280;9786;42.714;23.272;2022-07-05T00:39:43;95043.03;;;20.78;67.89
11045;BME280;9786;42.714;23.272;2022-07-05T00:42:30;95040.03;;;20.68;69.90
11045;BME280;9786;42.714;23.272;2022-07-05T00:45:17;95041.09;;;20.60;70.87
11045;BME280;9786;42.714;23.272;2022-07-05T00:48:04;95026.69;;;20.43;73.62
11045;BME280;9786;42.714;23.272;2022-07-05T00:50:58;95032.28;;;20.21;78.46
11045;BME280;9786;42.714;23.272;2022-07-05T00:53:45;95044.25;;;20.31;76.87
11045;BME280;9786;42.714;23.272;2022-07-05T00:56:32;95038.75;;;20.32;78.19
11045;BME280;9786;42.714;23.272;2022-07-05T00:59:18;95040.84;;;20.23;81.61
11045;BME280;9786;42.714;23.272;2022-07-05T01:01:57;95046.56;;;20.14;83.34
11045;BME280;9786;42.714;23.272;2022-07-05T01:04:43;95047.13;;;20.29;80.31
11045;BME280;9786;42.714;23.272;2022-07-05T01:07:31;95053.22;;;20.30;75.01
11045;BME280;9786;42.714;23.272;2022-07-05T01:10:18;95051.75;;;20.47;79.94
11045;BME280;9786;42.714;23.272;2022-07-05T01:13:05;95047.94;;;20.30;80.71
11045;BME280;9786;42.714;23.272;2022-07-05T01:15:52;95052.63;;;20.21;82.29
11045;BME280;9786;42.714;23.272;2022-07-05T01:18:39;95055.91;;;20.23;80.92
11045;BME280;9786;42.714;23.272;2022-07-05T01:22:12;95052.09;;;20.06;83.99
11045;BME280;9786;42.714;23.272;2022-07-05T01:24:59;95052.50;;;20.03;83.86
11045;BME280;9786;42.714;23.272;2022-07-05T01:27:46;95058.53;;;20.30;63.03
11045;BME280;9786;42.714;23.272;2022-07-05T01:30:34;95066.56;;;20.55;61.40
11045;BME280;9786;42.714;23.272;2022-07-05T01:33:26;95050.31;;;20.38;77.11
11045;BME280;9786;42.714;23.272;2022-07-05T01:36:13;95056.78;;;19.97;82.64
11045;BME280;9786;42.714;23.272;2022-07-05T01:39:00;95049.72;;;19.71;83.98
11045;BME280;9786;42.714;23.272;2022-07-05T01:42:35;95052.16;;;19.86;81.66
11045;BME280;9786;42.714;23.272;2022-07-05T01:45:22;95042.59;;;19.85;81.29
11045;BME280;9786;42.714;23.272;2022-07-05T01:48:32;95042.81;;;19.57;84.46
11045;BME280;9786;42.714;23.272;2022-07-05T01:51:20;95044.25;;;19.46;88.01
11045;BME280;9786;42.714;23.272;2022-07-05T01:54:09;95047.28;;;19.49;91.50
11045;BME280;9786;42.714;23.272;2022-07-05T01:56:56;95042.81;;;19.43;92.51
11045;BME280;9786;42.714;23.272;2022-07-05T01:59:45;95046.09;;;19.45;91.15
11045;BME280;9786;42.714;23.272;2022-07-05T02:03:21;95049.72;;;19.58;91.97
11045;BME280;9786;42.714;23.272;2022-07-05T02:06:31;95050.34;;;19.46;93.89
11045;BME280;9786;42.714;23.272;2022-07-05T02:09:18;95042.00;;;19.36;94.88
11045;BME280;9786;42.714;23.272;2022-07-05T02:12:06;95042.63;;;19.25;97.31
11045;BME280;9786;42.714;23.272;2022-07-05T02:14:53;95048.13;;;19.24;98.95
11045;BME280;9786;42.714;23.272;2022-07-05T02:17:40;95048.94;;;19.24;100.00
11045;BME280;9786;42.714;23.272;2022-07-05T02:20:27;95053.41;;;19.30;100.00
11045;BME280;9786;42.714;23.272;2022-07-05T02:23:14;95054.63;;;19.34;98.01
11045;BME280;9786;42.714;23.272;2022-07-05T02:25:57;95055.41;;;19.28;99.13
11045;BME280;9786;42.714;23.272;2022-07-05T02:28:45;95062.94;;;19.31;96.83
11045;BME280;9786;42.714;23.272;2022-07-05T02:31:33;95061.94;;;19.26;98.24
11045;BME280;9786;42.714;23.272;2022-07-05T02:34:22;95063.56;;;19.13;96.88
11045;BME280;9786;42.714;23.272;2022-07-05T02:37:09;95067.03;;;19.07;98.05
11045;BME280;9786;42.714;23.272;2022-07-05T02:39:55;95061.94;;;19.12;95.92
11045;BME280;9786;42.714;23.272;2022-07-05T02:42:42;95059.91;;;19.08;97.33
11045;BME280;9786;42.714;23.272;2022-07-05T02:48:08;95073.44;;;18.78;100.00
11045;BME280;9786;42.714;23.272;2022-07-05T02:50:55;95070.41;;;18.75;100.00
11045;BME280;9786;42.714;23.272;2022-07-05T02:53:42;95080.50;;;18.64;100.00
11045;BME280;9786;42.714;23.272;2022-07-05T02:56:28;95083.34;;;18.63;100.00
11045;BME280;9786;42.714;23.272;2022-07-05T02:59:16;95078.44;;;18.47;100.00
11045;BME280;9786;42.714;23.272;2022-07-05T03:02:03;95080.78;;;18.35;100.00
11045;BME280;9786;42.714;23.272;2022-07-05T03:04:54;95087.31;;;18.39;100.00
11045;BME280;9786;42.714;23.272;2022-07-05T03:07:44;95089.03;;;18.60;100.00
11045;BME280;9786;42.714;23.272;2022-07-05T04:25:34;95075.78;;;19.61;90.85
11045;BME280;9786;42.714;23.272;2022-07-05T04:28:31;95068.88;;;19.73;89.98
11045;BME280;9786;42.714;23.272;2022-07-05T04:31:21;95078.19;;;19.82;88.67
11045;BME280;9786;42.714;23.272;2022-07-05T04:34:10;95071.25;;;19.88;87.17
11045;BME280;9786;42.714;23.272;2022-07-05T04:37:04;95065.75;;;19.96;85.21
11045;BME280;9786;42.714;23.272;2022-07-05T04:39:52;95071.03;;;20.03;81.61
11045;BME280;9786;42.714;23.272;2022-07-05T04:42:40;95067.53;;;20.22;81.94
11045;BME280;9786;42.714;23.272;2022-07-05T05:56:35;95080.09;;;24.37;56.00
11045;BME280;9786;42.714;23.272;2022-07-05T05:59:33;95079.63;;;24.80;54.51
11045;BME280;9786;42.714;23.272;2022-07-05T06:02:21;95093.56;;;24.99;52.39
11045;BME280;9786;42.714;23.272;2022-07-05T06:05:10;95092.53;;;24.60;53.69
11045;BME280;9786;42.714;23.272;2022-07-05T06:07:59;95088.19;;;25.39;51.75
11045;BME280;9786;42.714;23.272;2022-07-05T06:10:50;95092.09;;;27.90;46.38
11045;BME280;9786;42.714;23.272;2022-07-05T06:13:45;95090.56;;;29.04;43.76
11045;BME280;9786;42.714;23.272;2022-07-05T06:38:07;95081.53;;;30.92;37.80
11045;BME280;9786;42.714;23.272;2022-07-05T06:40:57;95080.09;;;32.94;34.20
11045;BME280;9786;42.714;23.272;2022-07-05T06:47:22;95078.47;;;31.09;37.38
11045;BME280;9786;42.714;23.272;2022-07-05T06:53:05;95078.28;;;30.00;38.57
11045;BME280;9786;42.714;23.272;2022-07-05T06:56:11;95073.53;;;31.70;36.79
11045;BME280;9786;42.714;23.272;2022-07-05T06:59:15;95071.56;;;33.06;33.97
11045;BME280;9786;42.714;23.272;2022-07-05T07:02:19;95063.50;;;33.25;34.28
11045;BME280;9786;42.714;23.272;2022-07-05T07:15:28;95068.28;;;33.66;32.15
11045;BME280;9786;42.714;23.272;2022-07-05T07:18:16;95070.72;;;31.46;36.96
11045;BME280;9786;42.714;23.272;2022-07-05T07:21:18;95073.09;;;32.93;34.92
11045;BME280;9786;42.714;23.272;2022-07-05T07:24:17;95077.53;;;34.44;31.51
11045;BME280;9786;42.714;23.272;2022-07-05T07:30:29;95066.47;;;33.23;34.07
11045;BME280;9786;42.714;23.272;2022-07-05T07:33:31;95060.34;;;31.25;38.25
11045;BME280;9786;42.714;23.272;2022-07-05T07:36:31;95058.06;;;31.81;36.74
11045;BME280;9786;42.714;23.272;2022-07-05T22:16:33;95073.72;;;19.49;100.00
11045;BME280;9786;42.714;23.272;2022-07-05T22:19:19;95047.72;;;19.60;100.00
11045;BME280;9786;42.714;23.272;2022-07-05T22:22:06;95050.53;;;19.85;100.00
11045;BME280;9786;42.714;23.272;2022-07-05T22:24:53;95039.91;;;19.98;100.00
11045;BME280;9786;42.714;23.272;2022-07-05T22:27:39;95043.19;;;19.87;100.00
11045;BME280;9786;42.714;23.272;2022-07-05T22:30:26;95043.41;;;19.85;100.00
11045;BME280;9786;42.714;23.272;2022-07-05T22:33:12;95035.66;;;19.90;100.00
11045;BME280;9786;42.714;23.272;2022-07-05T22:35:59;95039.91;;;19.91;100.00
11045;BME280;9786;42.714;23.272;2022-07-05T22:51:49;95025.75;;;19.19;100.00
11045;BME280;9786;42.714;23.272;2022-07-05T22:54:36;95032.06;;;19.25;100.00
11045;BME280;9786;42.714;23.272;2022-07-05T22:57:27;95026.97;;;19.17;100.00
11045;BME280;9786;42.714;23.272;2022-07-05T23:03:34;95011.53;;;19.07;100.00
11045;BME280;9786;42.714;23.272;2022-07-05T23:06:23;94998.91;;;19.22;100.00
11045;BME280;9786;42.714;23.272;2022-07-05T23:09:13;95000.56;;;19.30;100.00
11045;BME280;9786;42.714;23.272;2022-07-05T23:12:02;95015.78;;;19.41;100.00
